Time;durP1;ratioP1;P1;durP2;ratioP2;P2;SDS_P1;SDS_P2;PMS_P1;PMS_P2;Temp;Humidity;BMP_temperature;BMP_pressure;BME280_temperature;BME280_humidity;BME280_pressure;Samples;Min_cycle;Max_cycle;Signal;HPM_P1;HPM_P2
2021/09/24 00:00:31;;;;;;;4.90;4.00;;;;;;;12.72;100.00;98432.22;5096909;28;20211;-66
2021/09/24 00:02:58;;;;;;;5.03;4.20;;;;;;;12.70;100.00;98431.47;5095425;28;20321;-66
2021/09/24 00:05:24;;;;;;;5.00;4.23;;;;;;;12.65;100.00;98425.69;5096312;28;20214;-66
2021/09/24 00:07:51;;;;;;;4.53;4.13;;;;;;;12.60;100.00;98435.78;5096380;28;20225;-66
2021/09/24 00:10:21;;;;;;;4.40;4.00;;;;;;;12.60;100.00;98427.81;5096276;28;20215;-66
2021/09/24 00:12:47;;;;;;;4.97;4.27;;;;;;;12.55;100.00;98422.00;5096481;28;20225;-66
2021/09/24 00:15:16;;;;;;;5.23;4.40;;;;;;;12.55;100.00;98414.03;5096350;28;20252;-67
2021/09/24 00:17:45;;;;;;;4.20;3.67;;;;;;;12.65;100.00;98415.09;5096138;28;20233;-66
2021/09/24 00:20:12;;;;;;;4.77;4.20;;;;;;;12.64;100.00;98414.22;5097209;28;20703;-66
2021/09/24 00:22:39;;;;;;;4.60;4.20;;;;;;;12.60;100.00;98415.38;5094306;28;20239;-66
2021/09/24 00:25:07;;;;;;;5.33;4.63;;;;;;;12.47;100.00;98416.41;5095905;28;20214;-66
2021/09/24 00:27:34;;;;;;;5.23;4.47;;;;;;;12.27;100.00;98419.63;5095903;28;20672;-66
2021/09/24 00:30:00;;;;;;;6.10;4.90;;;;;;;12.19;100.00;98424.63;5095732;28;20213;-66
2021/09/24 00:32:27;;;;;;;6.93;4.70;;;;;;;12.07;100.00;98428.16;5095723;28;20214;-66
2021/09/24 00:34:54;;;;;;;5.37;4.50;;;;;;;11.89;100.00;98425.00;5095767;28;20332;-66
2021/09/24 00:37:21;;;;;;;6.07;4.60;;;;;;;11.74;100.00;98431.34;5095704;28;20662;-66
2021/09/24 00:39:47;;;;;;;4.77;4.10;;;;;;;11.62;100.00;98434.00;5095835;28;20225;-66
2021/09/24 00:42:14;;;;;;;5.80;4.63;;;;;;;11.55;100.00;98435.34;5095743;28;20218;-66
2021/09/24 00:44:42;;;;;;;6.13;5.10;;;;;;;11.51;100.00;98439.16;5095672;28;20218;-66
2021/09/24 00:47:09;;;;;;;6.50;4.77;;;;;;;11.46;100.00;98431.53;5095868;28;20216;-65
2021/09/24 00:49:36;;;;;;;6.73;5.17;;;;;;;11.47;100.00;98433.22;5095773;28;20217;-66
2021/09/24 00:52:06;;;;;;;5.93;4.93;;;;;;;11.42;100.00;98435.31;5095712;28;20222;-66
2021/09/24 00:54:33;;;;;;;6.97;5.20;;;;;;;11.34;100.00;98432.34;5092974;28;20231;-66
2021/09/24 00:57:00;;;;;;;6.23;5.20;;;;;;;11.33;100.00;98432.44;5094031;28;20210;-68
2021/09/24 00:59:27;;;;;;;6.87;5.20;;;;;;;11.33;100.00;98435.09;5088487;28;20219;-66
2021/09/24 01:01:54;;;;;;;6.17;4.87;;;;;;;11.32;100.00;98438.69;5088959;28;20213;-66
2021/09/24 01:04:20;;;;;;;7.47;5.37;;;;;;;11.28;100.00;98437.19;5086856;28;20304;-66
2021/09/24 01:06:48;;;;;;;6.30;5.07;;;;;;;11.27;100.00;98436.38;5084988;28;20220;-66
2021/09/24 01:09:16;;;;;;;7.00;5.13;;;;;;;11.26;100.00;98433.81;5088313;28;20213;-66
2021/09/24 01:11:42;;;;;;;6.53;5.30;;;;;;;11.30;100.00;98440.56;5088619;28;20216;-66
2021/09/24 01:14:09;;;;;;;7.17;5.93;;;;;;;11.29;100.00;98430.94;5094886;28;20236;-66
2021/09/24 01:16:36;;;;;;;5.97;4.90;;;;;;;11.26;100.00;98433.81;5095210;28;20214;-66
2021/09/24 01:19:02;;;;;;;5.63;4.83;;;;;;;11.29;100.00;98433.59;5095187;28;20216;-65
2021/09/24 01:21:31;;;;;;;5.70;5.10;;;;;;;11.33;100.00;98435.09;5093253;28;20589;-66
2021/09/24 01:23:58;;;;;;;9.03;6.00;;;;;;;11.30;100.00;98427.34;5095225;28;20220;-66
2021/09/24 01:26:25;;;;;;;7.33;5.73;;;;;;;11.44;100.00;98432.56;5095252;28;20222;-65
2021/09/24 01:28:52;;;;;;;6.57;5.37;;;;;;;11.53;100.00;98426.63;5094933;28;20212;-66
2021/09/24 01:31:19;;;;;;;6.17;5.57;;;;;;;11.55;100.00;98425.59;5094731;28;20226;-66
2021/09/24 01:33:46;;;;;;;6.37;5.40;;;;;;;11.50;100.00;98426.88;5094423;28;20647;-66
2021/09/24 01:36:13;;;;;;;6.97;5.30;;;;;;;11.49;100.00;98430.47;5094742;28;20213;-67
2021/09/24 01:38:41;;;;;;;6.10;5.37;;;;;;;11.41;100.00;98417.75;5102050;28;20216;-65
2021/09/24 01:41:08;;;;;;;9.93;5.73;;;;;;;11.37;100.00;98416.25;5094752;28;20211;-65
2021/09/24 01:43:36;;;;;;;6.50;5.13;;;;;;;11.35;100.00;98417.31;5094676;28;20235;-66
2021/09/24 01:46:04;;;;;;;7.30;5.23;;;;;;;11.34;100.00;98426.19;5094459;28;20214;-66
2021/09/24 01:48:31;;;;;;;7.03;5.00;;;;;;;11.36;100.00;98419.00;5092505;28;20217;-66
2021/09/24 01:50:57;;;;;;;6.00;5.40;;;;;;;11.37;100.00;98420.72;5094420;28;20217;-65
2021/09/24 01:53:24;;;;;;;5.43;4.93;;;;;;;11.44;100.00;98416.69;5094526;28;20211;-65
2021/09/24 01:55:52;;;;;;;6.13;5.33;;;;;;;11.41;100.00;98411.59;5099366;28;20696;-65
2021/09/24 01:58:18;;;;;;;6.33;5.27;;;;;;;11.40;100.00;98410.75;5095885;28;20220;-65
2021/09/24 02:00:45;;;;;;;10.67;4.80;;;;;;;11.43;100.00;98404.41;5094084;28;20228;-66
2021/09/24 02:03:11;;;;;;;5.93;4.97;;;;;;;11.47;100.00;98400.59;5094318;28;20210;-67
2021/09/24 02:05:38;;;;;;;6.10;5.50;;;;;;;11.40;100.00;98405.47;5094092;28;20224;-65
2021/09/24 02:08:05;;;;;;;6.50;5.33;;;;;;;11.40;100.00;98400.19;5094077;28;20208;-67
2021/09/24 02:10:31;;;;;;;8.90;5.87;;;;;;;11.44;100.00;98398.16;5094062;28;20212;-67
2021/09/24 02:13:01;;;;;;;5.80;5.20;;;;;;;11.41;100.00;98401.00;5093608;28;20214;-66
2021/09/24 02:15:28;;;;;;;7.27;5.23;;;;;;;11.45;100.00;98394.56;5092928;28;20237;-66
2021/09/24 02:17:54;;;;;;;8.20;5.93;;;;;;;11.41;100.00;98401.00;5094083;28;20213;-66
2021/09/24 02:20:21;;;;;;;6.20;5.40;;;;;;;11.34;100.00;98399.75;5094085;28;20214;-66
2021/09/24 02:22:47;;;;;;;7.10;6.40;;;;;;;11.36;100.00;98389.88;5092931;28;20250;-67
2021/09/24 02:25:14;;;;;;;6.97;5.70;;;;;;;11.35;100.00;98393.50;5093876;28;20221;-66
2021/09/24 02:27:40;;;;;;;7.27;5.63;;;;;;;11.34;100.00;98394.44;5093756;28;20583;-67
2021/09/24 02:30:09;;;;;;;7.60;5.63;;;;;;;11.32;100.00;98397.19;5093784;28;20219;-67
2021/09/24 02:32:36;;;;;;;8.37;5.97;;;;;;;11.29;100.00;98391.25;5093722;28;20227;-68
2021/09/24 02:35:02;;;;;;;6.70;5.63;;;;;;;11.24;100.00;98391.56;5093858;28;20241;-67
2021/09/24 02:37:29;;;;;;;6.73;6.03;;;;;;;11.27;100.00;98385.22;5093658;28;20213;-67
2021/09/24 02:39:55;;;;;;;8.47;5.77;;;;;;;11.28;100.00;98381.63;5091939;28;20214;-67
2021/09/24 02:42:22;;;;;;;7.87;6.50;;;;;;;11.35;100.00;98380.25;5093823;28;20224;-68
2021/09/24 02:44:48;;;;;;;8.10;5.93;;;;;;;11.33;100.00;98392.75;5086232;28;20584;-68
2021/09/24 02:47:16;;;;;;;6.67;5.50;;;;;;;11.42;100.00;98386.81;5093788;28;20216;-68
2021/09/24 02:49:44;;;;;;;6.73;6.03;;;;;;;11.42;100.00;98386.81;5093612;28;20214;-68
2021/09/24 02:52:11;;;;;;;6.90;6.03;;;;;;;11.47;100.00;98385.56;5093427;28;20217;-68
2021/09/24 02:54:37;;;;;;;7.97;6.27;;;;;;;11.54;100.00;98378.03;5098341;28;20709;-67
2021/09/24 02:57:04;;;;;;;7.57;5.93;;;;;;;11.53;100.00;98386.94;5093054;28;20215;-68
2021/09/24 02:59:31;;;;;;;6.77;5.27;;;;;;;11.54;100.00;98381.53;5093152;28;20220;-68
2021/09/24 03:01:58;;;;;;;7.13;5.63;;;;;;;11.60;100.00;98386.44;5092971;28;20698;-68
2021/09/24 03:04:26;;;;;;;8.57;6.07;;;;;;;11.68;100.00;98388.56;5093396;28;20557;-68
2021/09/24 03:06:52;;;;;;;6.60;5.90;;;;;;;11.77;100.00;98386.13;5091605;28;20219;-68
2021/09/24 03:09:19;;;;;;;6.37;5.30;;;;;;;11.80;100.00;98385.91;5093362;28;20221;-68
2021/09/24 03:11:46;;;;;;;6.03;5.27;;;;;;;11.85;100.00;98385.56;5092919;28;20682;-68
2021/09/24 03:14:12;;;;;;;6.77;5.90;;;;;;;11.92;100.00;98392.16;5093022;28;20217;-68
2021/09/24 03:16:41;;;;;;;6.97;5.77;;;;;;;11.94;100.00;98385.81;5093209;28;20232;-68
2021/09/24 03:19:08;;;;;;;6.87;4.87;;;;;;;11.99;100.00;98393.41;5094168;28;20210;-68
2021/09/24 03:21:36;;;;;;;7.87;5.80;;;;;;;12.03;100.00;98392.22;5092902;28;20222;-68
2021/09/24 03:24:02;;;;;;;6.67;5.27;;;;;;;12.02;100.00;98390.53;5092610;28;20676;-67
2021/09/24 03:26:29;;;;;;;6.07;5.37;;;;;;;12.00;100.00;98384.50;5092681;28;20221;-68
2021/09/24 03:28:55;;;;;;;8.73;5.20;;;;;;;11.98;100.00;98381.13;5092594;28;20668;-68
2021/09/24 03:31:22;;;;;;;6.97;5.23;;;;;;;11.93;100.00;98383.25;5090883;28;20228;-69
2021/09/24 03:33:49;;;;;;;5.97;5.13;;;;;;;11.97;100.00;98379.41;5093832;28;20210;-68
2021/09/24 03:36:15;;;;;;;5.67;4.83;;;;;;;11.96;100.00;98378.56;5096753;28;20244;-68
2021/09/24 03:38:43;;;;;;;5.90;5.20;;;;;;;11.89;100.00;98384.41;5104484;28;20214;-68
2021/09/24 03:41:10;;;;;;;6.20;5.33;;;;;;;11.87;100.00;98378.38;5097134;28;20217;-68
2021/09/24 03:43:36;;;;;;;7.57;5.30;;;;;;;11.89;100.00;98379.97;5096792;28;20235;-68
2021/09/24 03:46:03;;;;;;;7.30;5.17;;;;;;;11.97;100.00;98379.41;5097047;28;20220;-68
2021/09/24 03:48:30;;;;;;;6.60;5.50;;;;;;;11.94;100.00;98380.50;5096660;28;20214;-68
2021/09/24 03:50:57;;;;;;;5.33;4.77;;;;;;;12.00;100.00;98379.22;5096988;28;20213;-68
2021/09/24 03:53:23;;;;;;;6.90;5.40;;;;;;;12.05;100.00;98374.44;5096988;28;20213;-68
2021/09/24 03:55:53;;;;;;;6.67;4.83;;;;;;;12.04;100.00;98367.44;5102296;28;20345;-68
2021/09/24 03:58:19;;;;;;;7.73;5.37;;;;;;;12.00;100.00;98361.53;5096133;28;20553;-68
2021/09/24 04:00:46;;;;;;;7.00;5.30;;;;;;;11.99;100.00;98366.94;5096532;28;20222;-68
2021/09/24 04:03:12;;;;;;;5.90;5.30;;;;;;;12.03;100.00;98365.72;5096630;28;20240;-68
2021/09/24 04:05:39;;;;;;;6.50;4.90;;;;;;;12.03;100.00;98358.63;5096692;28;20216;-68
2021/09/24 04:08:06;;;;;;;6.63;5.20;;;;;;;12.04;100.00;98376.22;5103525;28;20212;-68
2021/09/24 04:10:32;;;;;;;5.97;5.27;;;;;;;12.04;100.00;98370.09;5096370;28;20237;-68
2021/09/24 04:13:00;;;;;;;5.83;5.23;;;;;;;12.06;100.00;98384.06;5100563;28;20711;-68
2021/09/24 04:15:26;;;;;;;5.70;5.10;;;;;;;12.04;100.00;98386.00;5096283;28;20241;-68
2021/09/24 04:17:53;;;;;;;6.60;5.70;;;;;;;12.02;100.00;98385.22;5095965;28;20224;-68
2021/09/24 04:20:19;;;;;;;6.87;6.17;;;;;;;11.94;100.00;98391.09;5096284;28;20223;-68
2021/09/24 04:22:46;;;;;;;8.60;6.50;;;;;;;11.86;100.00;98387.28;5096145;28;20263;-68
2021/09/24 04:25:12;;;;;;;7.03;6.10;;;;;;;11.83;100.00;98387.50;5094418;28;20223;-68
2021/09/24 04:27:39;;;;;;;6.80;6.10;;;;;;;11.84;100.00;98400.63;5096198;28;20213;-68
2021/09/24 04:30:08;;;;;;;7.33;6.53;;;;;;;11.78;100.00;98394.91;5096192;28;20214;-68
2021/09/24 04:32:35;;;;;;;9.20;6.17;;;;;;;11.67;100.00;98392.19;5095965;28;20239;-68
2021/09/24 04:35:02;;;;;;;7.87;6.20;;;;;;;11.62;100.00;98387.19;5096015;28;20241;-68
2021/09/24 04:37:29;;;;;;;6.33;5.67;;;;;;;11.55;100.00;98388.53;5095841;28;20295;-68
2021/09/24 04:39:56;;;;;;;10.47;6.30;;;;;;;11.47;100.00;98393.50;5095615;28;20221;-68
2021/09/24 04:42:23;;;;;;;7.63;5.77;;;;;;;11.47;100.00;98390.00;5095650;28;20212;-68
2021/09/24 04:44:49;;;;;;;8.20;6.00;;;;;;;11.42;100.00;98397.41;5095421;28;20228;-68
2021/09/24 04:47:18;;;;;;;6.63;5.77;;;;;;;11.43;100.00;98388.53;5095701;28;20209;-68
2021/09/24 04:49:44;;;;;;;8.13;6.57;;;;;;;11.39;100.00;98393.19;5093776;28;20713;-68
2021/09/24 04:52:11;;;;;;;7.90;6.50;;;;;;;11.35;100.00;98396.13;5095596;28;20566;-68
2021/09/24 04:54:37;;;;;;;7.17;6.03;;;;;;;11.37;100.00;98391.59;5086995;28;20216;-68
2021/09/24 04:57:04;;;;;;;9.57;6.47;;;;;;;11.32;100.00;98391.06;5095531;28;20600;-68
2021/09/24 04:59:31;;;;;;;7.60;6.23;;;;;;;11.31;100.00;98399.97;5095685;28;20221;-68
2021/09/24 05:01:57;;;;;;;9.00;6.73;;;;;;;11.27;100.00;98394.03;5095625;28;20208;-68
2021/09/24 05:04:25;;;;;;;8.67;6.53;;;;;;;11.26;100.00;98402.06;5095483;28;20219;-68
2021/09/24 05:06:51;;;;;;;9.30;6.57;;;;;;;11.21;100.00;98398.88;5095421;28;20212;-68
2021/09/24 05:09:18;;;;;;;6.90;6.10;;;;;;;11.25;100.00;98395.91;5095256;28;20209;-68
2021/09/24 05:11:44;;;;;;;6.47;4.90;;;;;;;11.30;100.00;98399.09;5095446;28;20238;-68
2021/09/24 05:14:11;;;;;;;6.20;5.40;;;;;;;11.32;100.00;98401.66;5102348;28;20218;-68
2021/09/24 05:16:37;;;;;;;7.40;5.50;;;;;;;11.33;100.00;98401.56;5093305;28;20707;-68
2021/09/24 05:19:04;;;;;;;7.47;5.27;;;;;;;11.28;100.00;98395.72;5102375;28;20237;-68
2021/09/24 05:21:32;;;;;;;6.77;5.50;;;;;;;11.20;100.00;98399.84;5094838;28;20215;-68
2021/09/24 05:23:58;;;;;;;7.27;6.17;;;;;;;11.27;100.00;98395.81;5102457;28;20221;-68
2021/09/24 05:26:25;;;;;;;9.13;6.17;;;;;;;11.29;100.00;98401.84;5095130;28;20217;-68
2021/09/24 05:28:51;;;;;;;7.97;5.27;;;;;;;11.23;100.00;98399.59;5094704;28;20213;-68
2021/09/24 05:31:18;;;;;;;7.87;5.70;;;;;;;11.23;100.00;98407.53;5094928;28;20207;-68
2021/09/24 05:33:44;;;;;;;7.57;6.33;;;;;;;11.22;100.00;98408.50;5094614;28;20210;-68
2021/09/24 05:36:11;;;;;;;8.97;5.60;;;;;;;11.24;100.00;98406.59;5094848;28;20236;-68
2021/09/24 05:38:39;;;;;;;9.77;6.07;;;;;;;11.20;100.00;98402.47;5094644;28;20808;-68
2021/09/24 05:41:06;;;;;;;7.40;5.80;;;;;;;11.24;100.00;98402.16;5093695;28;20680;-68
2021/09/24 05:43:33;;;;;;;8.07;5.67;;;;;;;11.29;100.00;98404.47;5093818;28;20214;-68
2021/09/24 05:45:59;;;;;;;5.93;5.07;;;;;;;11.31;100.00;98399.97;5094402;28;20242;-68
2021/09/24 05:48:27;;;;;;;6.63;5.57;;;;;;;11.36;100.00;98403.13;5094653;28;20213;-68
2021/09/24 05:50:53;;;;;;;6.07;5.40;;;;;;;11.41;100.00;98406.31;5094535;28;20225;-68
2021/09/24 05:53:20;;;;;;;8.53;6.70;;;;;;;11.45;100.00;98413.09;5094347;28;20230;-68
2021/09/24 05:55:48;;;;;;;7.57;5.83;;;;;;;11.43;100.00;98412.34;5099646;28;20594;-68
2021/09/24 05:58:15;;;;;;;6.67;5.53;;;;;;;11.46;100.00;98409.50;5094733;28;20217;-68
2021/09/24 06:00:42;;;;;;;7.47;5.80;;;;;;;11.52;100.00;98419.66;5094273;28;20241;-68
2021/09/24 06:03:09;;;;;;;6.20;5.57;;;;;;;11.55;100.00;98419.47;5094583;28;20287;-68
2021/09/24 06:05:35;;;;;;;6.53;5.70;;;;;;;11.62;100.00;98415.47;5093997;28;20617;-68
2021/09/24 06:08:02;;;;;;;7.80;6.40;;;;;;;11.66;100.00;98420.44;5092563;28;20213;-68
2021/09/24 06:10:28;;;;;;;9.03;7.00;;;;;;;11.72;100.00;98416.50;5094266;28;20298;-68
2021/09/24 06:12:56;;;;;;;9.57;6.53;;;;;;;11.83;100.00;98424.56;5093688;28;20696;-67
2021/09/24 06:15:24;;;;;;;7.97;6.13;;;;;;;11.91;100.00;98422.22;5093982;28;20233;-68
2021/09/24 06:17:51;;;;;;;6.87;5.83;;;;;;;11.97;100.00;98419.13;5093931;28;20213;-68
2021/09/24 06:20:19;;;;;;;9.70;6.60;;;;;;;12.04;100.00;98423.06;5094184;28;20213;-67
2021/09/24 06:22:47;;;;;;;9.13;6.77;;;;;;;12.15;100.00;98425.78;5093480;28;20750;-67
2021/09/24 06:25:14;;;;;;;7.63;5.90;;;;;;;12.23;100.00;98423.47;5093870;28;20210;-67
2021/09/24 06:27:41;;;;;;;8.83;7.07;;;;;;;12.31;100.00;98429.06;5093880;28;20218;-68
2021/09/24 06:30:12;;;;;;;9.73;6.97;;;;;;;12.38;100.00;98425.88;5101169;28;20212;-67
2021/09/24 06:32:39;;;;;;;11.40;7.23;;;;;;;12.51;100.00;98425.81;5098615;28;20266;-67
2021/09/24 06:35:07;;;;;;;8.00;6.20;;;;;;;12.59;100.00;98420.81;5091923;28;20207;-68
2021/09/24 06:37:34;;;;;;;9.63;6.97;;;;;;;12.70;100.00;98423.53;5100632;28;20578;-67
2021/09/24 06:40:00;;;;;;;9.03;6.87;;;;;;;12.81;100.00;98420.94;5091380;28;20587;-68
2021/09/24 06:42:27;;;;;;;7.73;6.70;;;;;;;12.90;100.00;98426.41;5095986;28;20212;-69
2021/09/24 06:44:57;;;;;;;8.17;6.97;;;;;;;13.00;100.00;98431.91;5092358;28;20701;-68
2021/09/24 06:47:25;;;;;;;9.40;6.63;;;;;;;13.11;100.00;98435.47;5092750;28;20228;-68
2021/09/24 06:49:51;;;;;;;8.37;6.67;;;;;;;13.26;100.00;98433.50;5093486;28;20217;-68
2021/09/24 06:52:19;;;;;;;7.70;6.40;;;;;;;13.36;100.00;98431.81;5093222;28;20211;-68
2021/09/24 06:54:45;;;;;;;8.07;6.20;;;;;;;13.49;100.00;98432.56;5091680;28;20224;-69
2021/09/24 06:57:13;;;;;;;9.67;5.70;;;;;;;13.59;100.00;98441.53;5092935;28;20244;-68
2021/09/24 06:59:39;;;;;;;7.80;5.90;;;;;;;13.68;100.00;98440.84;5091286;28;20220;-68
2021/09/24 07:02:06;;;;;;;7.77;5.83;;;;;;;13.81;100.00;98441.59;5093028;28;20215;-68
2021/09/24 07:04:34;;;;;;;8.03;6.20;;;;;;;13.94;100.00;98434.38;5092896;28;20212;-68
2021/09/24 07:07:00;;;;;;;8.07;5.83;;;;;;;14.07;100.00;98433.31;5093278;28;20221;-68
2021/09/24 07:09:27;;;;;;;8.30;6.33;;;;;;;14.29;100.00;98432.47;5092805;28;20667;-68
2021/09/24 07:11:53;;;;;;;7.77;6.20;;;;;;;14.56;100.00;98446.22;5093132;28;20222;-68
2021/09/24 07:14:21;;;;;;;6.97;5.60;;;;;;;14.79;100.00;98447.88;5093092;28;20218;-68
2021/09/24 07:16:48;;;;;;;7.67;6.23;;;;;;;14.93;100.00;98447.59;5093027;28;20244;-68
2021/09/24 07:19:15;;;;;;;6.87;6.17;;;;;;;15.01;100.00;98447.81;5093167;28;20240;-68
2021/09/24 07:21:43;;;;;;;7.67;6.47;;;;;;;15.02;100.00;98445.03;5092758;28;20698;-68
2021/09/24 07:24:10;;;;;;;8.80;7.10;;;;;;;15.06;100.00;98446.47;5092822;28;20678;-67
2021/09/24 07:26:36;;;;;;;8.87;6.80;;;;;;;15.19;100.00;98451.63;5091428;28;20218;-67
2021/09/24 07:29:04;;;;;;;10.83;7.30;;;;;;;15.35;100.00;98447.63;5092933;28;20206;-67
2021/09/24 07:31:31;;;;;;;10.10;6.63;;;;;;;15.46;99.58;98452.88;5092627;28;20288;-67
2021/09/24 07:33:58;;;;;;;9.30;7.13;;;;;;;15.57;97.37;98452.00;5092575;28;20702;-67
2021/09/24 07:36:24;;;;;;;10.17;6.87;;;;;;;15.68;96.02;98454.56;5092524;28;20235;-67
2021/09/24 07:38:53;;;;;;;8.33;6.60;;;;;;;15.73;96.07;98460.38;5093022;28;20214;-68
2021/09/24 07:41:20;;;;;;;11.30;7.90;;;;;;;15.78;96.45;98460.81;5092793;28;20221;-67
2021/09/24 07:43:49;;;;;;;11.37;8.10;;;;;;;15.90;96.21;98454.44;5092961;28;20217;-67
2021/09/24 07:46:17;;;;;;;10.27;7.50;;;;;;;15.97;95.34;98460.94;5093043;28;20622;-67
2021/09/24 07:48:44;;;;;;;9.37;7.40;;;;;;;16.01;95.64;98467.72;5092921;28;20229;-67
2021/09/24 07:51:11;;;;;;;10.83;7.77;;;;;;;16.06;94.74;98465.50;5092182;28;20217;-67
2021/09/24 07:53:38;;;;;;;9.57;7.97;;;;;;;16.08;94.29;98463.53;5084208;28;20211;-67
2021/09/24 07:56:07;;;;;;;13.20;8.00;;;;;;;16.13;93.30;98464.00;5097605;28;20230;-67
2021/09/24 07:58:35;;;;;;;10.83;7.67;;;;;;;16.12;93.56;98464.97;5091541;28;20223;-68
2021/09/24 08:01:02;;;;;;;8.97;7.30;;;;;;;16.20;93.47;98464.16;5091721;28;20302;-68
2021/09/24 08:03:28;;;;;;;12.70;8.47;;;;;;;16.48;93.22;98470.66;5089659;28;20305;-67
2021/09/24 08:05:55;;;;;;;9.10;7.40;;;;;;;16.80;91.67;98474.84;5090492;28;20586;-67
2021/09/24 08:08:22;;;;;;;10.80;7.87;;;;;;;17.16;88.56;98471.53;5091544;28;20683;-67
2021/09/24 08:10:48;;;;;;;10.07;7.53;;;;;;;17.46;86.67;98478.63;5090879;28;20219;-67
2021/09/24 08:13:16;;;;;;;13.03;8.43;;;;;;;17.71;84.83;98468.22;5091384;28;20691;-67
2021/09/24 08:15:43;;;;;;;9.13;7.70;;;;;;;17.87;84.55;98467.63;5091782;28;20211;-68
2021/09/24 08:18:10;;;;;;;8.37;7.30;;;;;;;18.03;83.51;98473.22;5089876;28;20272;-68
2021/09/24 08:20:37;;;;;;;8.30;7.23;;;;;;;18.12;83.52;98481.25;5083189;28;20215;-68
2021/09/24 08:23:04;;;;;;;8.37;7.30;;;;;;;18.23;82.73;98482.91;5096287;28;20266;-69
2021/09/24 08:25:30;;;;;;;9.07;6.90;;;;;;;18.20;82.56;98481.34;5096361;28;20222;-68
2021/09/24 08:27:57;;;;;;;8.10;7.03;;;;;;;18.13;83.04;98480.25;5095794;28;20672;-68
2021/09/24 08:30:27;;;;;;;9.67;8.17;;;;;;;18.04;83.12;98485.63;5095118;28;20206;-68
2021/09/24 08:32:54;;;;;;;8.60;7.10;;;;;;;17.99;83.36;98482.53;5095572;28;20672;-68
2021/09/24 08:35:22;;;;;;;10.07;7.20;;;;;;;17.92;83.15;98476.91;5095603;28;20210;-68
2021/09/24 08:37:49;;;;;;;11.37;7.50;;;;;;;17.92;82.88;98476.91;5095720;28;20241;-68
2021/09/24 08:40:17;;;;;;;8.93;7.63;;;;;;;17.87;83.21;98479.16;5095405;28;20743;-68
2021/09/24 08:42:44;;;;;;;11.03;7.73;;;;;;;17.88;82.57;98475.50;5095490;28;20223;-69
2021/09/24 08:45:12;;;;;;;8.60;6.90;;;;;;;17.95;82.25;98475.78;5093797;28;20561;-69
2021/09/24 08:47:40;;;;;;;9.70;7.80;;;;;;;18.01;80.74;98473.38;5095252;28;20680;-69
2021/09/24 08:50:09;;;;;;;8.70;6.83;;;;;;;18.08;80.46;98470.94;5095137;28;20703;-68
2021/09/24 08:52:36;;;;;;;9.13;7.97;;;;;;;18.19;79.14;98470.78;5095137;28;20218;-67
2021/09/24 08:55:04;;;;;;;9.30;7.43;;;;;;;18.46;77.04;98481.59;5093337;28;20215;-67
2021/09/24 08:57:30;;;;;;;7.67;6.57;;;;;;;18.50;76.87;98474.94;5093380;28;20249;-67
2021/09/24 08:59:57;;;;;;;8.17;6.50;;;;;;;18.54;76.27;98474.50;5083141;28;20215;-66
2021/09/24 09:02:24;;;;;;;11.17;7.50;;;;;;;18.50;75.86;98477.63;5094800;28;20669;-67
2021/09/24 09:04:52;;;;;;;7.80;6.93;;;;;;;18.47;76.59;98476.06;5094779;28;20667;-69
2021/09/24 09:07:21;;;;;;;7.70;6.23;;;;;;;18.38;76.96;98468.94;5095013;28;20271;-70
2021/09/24 09:09:50;;;;;;;7.20;5.50;;;;;;;18.34;76.58;98467.53;5082575;28;20215;-67
2021/09/24 09:12:20;;;;;;;7.33;5.50;;;;;;;18.54;76.08;98469.13;5093230;28;20302;-66
2021/09/24 09:14:58;;;;;;;7.70;5.47;;;;;;;18.63;76.42;98462.06;5094530;28;20225;-70
2021/09/24 09:17:32;;;;;;;6.23;5.63;;;;;;;18.65;76.20;98460.09;5094502;28;20233;-68
2021/09/24 09:20:18;;;;;;;7.10;5.10;;;;;;;18.61;76.29;98464.91;5087852;28;20214;-68
2021/09/24 09:22:46;;;;;;;7.83;5.20;;;;;;;18.64;76.47;98464.59;5094825;28;20230;-68
2021/09/24 09:25:22;;;;;;;6.73;5.13;;;;;;;18.72;76.12;98467.38;5094441;28;20211;-68
2021/09/24 09:27:49;;;;;;;5.77;5.17;;;;;;;18.87;75.88;98459.69;5094631;28;20214;-68
2021/09/24 09:30:16;;;;;;;6.00;4.80;;;;;;;18.87;76.30;98475.75;5094638;28;20297;-68
2021/09/24 09:32:45;;;;;;;7.63;4.70;;;;;;;18.95;75.41;98474.03;5094127;28;20637;-68
2021/09/24 09:35:13;;;;;;;7.00;4.90;;;;;;;18.98;74.45;98472.88;5094263;28;20286;-68
2021/09/24 09:37:40;;;;;;;5.30;4.63;;;;;;;18.96;74.36;98470.34;5092773;28;20239;-68
2021/09/24 09:40:10;;;;;;;5.20;4.67;;;;;;;19.04;74.37;98467.78;5094471;28;20218;-68
2021/09/24 09:42:39;;;;;;;8.47;4.50;;;;;;;19.25;73.51;98463.00;5078049;28;20219;-68
2021/09/24 09:45:09;;;;;;;5.93;4.90;;;;;;;19.40;71.38;98458.81;5094125;28;20210;-68
2021/09/24 09:47:37;;;;;;;6.17;5.07;;;;;;;19.31;73.59;98475.78;5094294;28;20212;-68
2021/09/24 09:50:10;;;;;;;5.33;4.77;;;;;;;19.13;72.22;98471.41;5094337;28;20210;-68
2021/09/24 09:52:57;;;;;;;5.40;4.90;;;;;;;19.11;72.37;98468.84;5094176;28;20222;-68
2021/09/24 09:55:25;;;;;;;4.90;4.40;;;;;;;19.10;73.16;98475.22;5093712;28;20233;-68
2021/09/24 09:57:52;;;;;;;5.73;4.37;;;;;;;19.31;73.43;98465.06;5093881;28;20245;-69
2021/09/24 10:00:19;;;;;;;6.57;4.97;;;;;;;19.50;71.87;98459.56;5082512;28;20233;-69
2021/09/24 10:02:49;;;;;;;4.80;4.10;;;;;;;19.63;70.75;98459.19;5093630;28;20215;-68
2021/09/24 10:05:37;;;;;;;4.00;3.60;;;;;;;19.73;71.55;98459.91;5092261;28;20227;-68
2021/09/24 10:11:04;;;;;;;7.13;3.97;;;;;;;20.25;70.84;98443.72;5090003;28;20924;-67
2021/09/24 10:13:34;;;;;;;7.50;3.57;;;;;;;20.51;68.41;98441.88;5085032;28;20210;-67
2021/09/24 10:16:02;;;;;;;3.97;3.30;;;;;;;20.66;67.09;98440.25;5081239;28;20222;-67
2021/09/24 10:18:30;;;;;;;6.10;3.57;;;;;;;20.85;66.75;98444.56;5084039;28;20215;-67
2021/09/24 10:20:57;;;;;;;4.83;4.17;;;;;;;21.13;67.11;98437.94;5084802;28;20210;-69
2021/09/24 10:23:24;;;;;;;5.73;4.27;;;;;;;21.38;64.97;98436.97;5084645;28;20217;-67
2021/09/24 10:25:58;;;;;;;4.53;3.50;;;;;;;21.34;63.84;98433.78;5081083;28;20216;-67
2021/09/24 10:28:32;;;;;;;3.57;3.27;;;;;;;21.12;63.46;98436.25;5084413;28;20685;-67
2021/09/24 10:30:59;;;;;;;4.13;3.67;;;;;;;20.86;64.10;98444.38;5083221;28;20221;-67
2021/09/24 10:33:51;;;;;;;4.27;3.80;;;;;;;20.59;65.03;98433.84;5078437;28;20214;-67
2021/09/24 10:36:42;;;;;;;4.90;3.57;;;;;;;20.21;67.33;98439.72;5084610;28;20230;-67
2021/09/24 10:39:42;;;;;;;4.57;3.83;;;;;;;19.89;69.81;98433.25;5084544;28;20592;-69
2021/09/24 10:42:21;;;;;;;4.70;4.03;;;;;;;19.60;71.09;98433.50;5060357;28;20219;-67
2021/09/24 10:45:01;;;;;;;5.17;4.03;;;;;;;19.32;70.26;98431.09;5084468;28;20564;-69
2021/09/24 10:47:46;;;;;;;3.93;3.40;;;;;;;19.22;70.70;98428.47;5081118;28;20592;-66
2021/09/24 10:51:01;;;;;;;3.93;3.30;;;;;;;19.32;70.62;98423.88;5063846;28;20569;-67
2021/09/24 10:53:39;;;;;;;3.87;3.50;;;;;;;19.30;72.39;98415.16;5075803;28;20696;-69
2021/09/24 10:56:30;;;;;;;4.13;3.60;;;;;;;19.30;71.95;98425.88;5071102;28;20621;-67
2021/09/24 10:58:58;;;;;;;4.77;3.70;;;;;;;19.43;70.62;98415.59;5082666;28;20262;-67
2021/09/24 11:01:39;;;;;;;3.97;3.43;;;;;;;19.67;70.16;98413.13;5080503;28;20215;-67
2021/09/24 11:04:12;;;;;;;3.40;3.10;;;;;;;19.88;69.17;98410.09;5065953;28;20324;-67
2021/09/24 11:06:41;;;;;;;3.50;3.20;;;;;;;19.89;69.68;98414.47;5084114;28;20219;-67
2021/09/24 11:09:10;;;;;;;3.60;3.30;;;;;;;19.89;71.01;98411.78;5080068;28;20254;-67
2021/09/24 11:11:39;;;;;;;3.43;2.97;;;;;;;19.85;71.05;98405.88;5083189;28;20219;-67
2021/09/24 11:14:41;;;;;;;4.27;3.40;;;;;;;19.73;69.68;98408.97;5083944;28;20237;-70
2021/09/24 11:17:11;;;;;;;3.80;3.40;;;;;;;19.68;67.92;98404.06;5037776;28;20247;-67
2021/09/24 11:19:43;;;;;;;4.77;3.17;;;;;;;19.55;68.38;98403.63;5020008;28;20644;-67
2021/09/24 11:22:16;;;;;;;3.30;2.90;;;;;;;19.45;69.28;98402.88;5050146;28;20246;-67
2021/09/24 11:24:46;;;;;;;4.17;3.60;;;;;;;19.38;69.28;98401.00;5066329;28;20218;-67
2021/09/24 11:27:30;;;;;;;4.10;3.70;;;;;;;19.34;71.16;98400.44;5068141;28;20212;-67
2021/09/24 11:30:15;;;;;;;4.17;3.33;;;;;;;19.43;70.19;98398.66;5070019;28;20235;-67
2021/09/24 11:32:45;;;;;;;4.43;3.60;;;;;;;19.67;68.75;98386.31;5066589;28;20223;-67
2021/09/24 11:35:13;;;;;;;3.70;3.40;;;;;;;19.94;69.35;98386.16;5069294;28;20212;-67